Time;durP1;ratioP1;P1;durP2;ratioP2;P2;SDS_P1;SDS_P2;PMS_P1;PMS_P2;Temp;Humidity;BMP_temperature;BMP_pressure;BME280_temperature;BME280_humidity;BME280_pressure;Samples;Min_cycle;Max_cycle;Signal;HPM_P1;HPM_P2
2023/05/05 00:03:55;;;;;;;;;;;;;;;20.23;45.32;95785.97;10231477;28;1960;-69
2023/05/05 00:08:55;;;;;;;;;;;;;;;20.22;45.12;95789.66;10229711;28;2161;-69
2023/05/05 00:13:55;;;;;;;;;;;;;;;20.21;45.08;95777.56;10230544;28;2076;-69
2023/05/05 00:18:56;;;;;;;;;;;;;;;20.21;44.86;95778.34;10232223;28;1968;-69
2023/05/05 00:23:56;;;;;;;;;;;;;;;20.20;44.75;95776.75;10234054;28;1977;-69
2023/05/05 00:28:57;;;;;;;;;;;;;;;20.19;44.92;95775.19;10228452;28;2144;-70
2023/05/05 00:33:57;;;;;;;;;;;;;;;20.18;44.91;95773.59;10229426;28;1930;-69
2023/05/05 00:38:57;;;;;;;;;;;;;;;20.18;44.91;95767.53;10219775;28;2014;-69
2023/05/05 00:43:57;;;;;;;;;;;;;;;20.17;44.84;95774.63;10225064;28;5114;-69
2023/05/05 00:48:58;;;;;;;;;;;;;;;20.17;44.62;95774.63;10228791;28;1998;-69
2023/05/05 00:53:59;;;;;;;;;;;;;;;20.17;44.91;95773.84;10228251;28;1902;-69
2023/05/05 00:58:59;;;;;;;;;;;;;;;20.16;44.80;95769.63;10231131;28;2144;-69
2023/05/05 01:04:00;;;;;;;;;;;;;;;20.15;44.61;95757.56;10229879;28;2058;-69
2023/05/05 01:09:04;;;;;;;;;;;;;;;20.15;44.59;95757.56;10234095;28;1977;-69
2023/05/05 01:14:15;;;;;;;;;;;;;;;20.15;44.76;95757.56;10233688;28;2076;-69
2023/05/05 01:19:21;;;;;;;;;;;;;;;20.14;44.69;95754.13;10230381;28;1922;-69
2023/05/05 01:24:21;;;;;;;;;;;;;;;20.13;44.54;95754.41;10238202;28;1961;-69
2023/05/05 01:29:26;;;;;;;;;;;;;;;20.13;44.44;95757.81;10226586;28;2151;-69
2023/05/05 01:34:26;;;;;;;;;;;;;;;20.14;44.43;95761.22;10235257;28;1962;-69
2023/05/05 01:39:27;;;;;;;;;;;;;;;20.12;44.36;95752.81;10231291;28;2266;-70
2023/05/05 01:44:28;;;;;;;;;;;;;;;20.12;44.40;95760.72;10232323;28;5438;-69
2023/05/05 01:49:28;;;;;;;;;;;;;;;20.12;44.40;95758.06;10233569;28;2131;-69
2023/05/05 01:54:28;;;;;;;;;;;;;;;20.10;44.67;95755.72;10240136;28;2254;-69
2023/05/05 01:59:28;;;;;;;;;;;;;;;20.10;44.48;95760.19;10240417;28;2258;-69
2023/05/05 02:04:29;;;;;;;;;;;;;;;20.09;44.41;95763.91;10241415;28;1993;-69
2023/05/05 02:09:30;;;;;;;;;;;;;;;20.09;44.41;95762.03;10232424;28;2199;-69
2023/05/05 02:14:30;;;;;;;;;;;;;;;20.08;44.24;95764.94;10240609;28;1923;-70
2023/05/05 02:19:37;;;;;;;;;;;;;;;20.09;44.37;95767.28;10239551;28;2209;-70
2023/05/05 02:24:37;;;;;;;;;;;;;;;20.07;44.32;95764.16;10238487;28;2066;-70
2023/05/05 02:29:41;;;;;;;;;;;;;;;20.07;44.26;95763.38;10239326;28;1998;-70
2023/05/05 02:34:41;;;;;;;;;;;;;;;20.06;44.39;95765.22;10239333;28;1991;-71
2023/05/05 02:39:43;;;;;;;;;;;;;;;20.07;44.42;95766.00;10238340;28;2207;-70
2023/05/05 02:44:44;;;;;;;;;;;;;;;20.07;44.22;95766.00;10235321;28;5483;-70
2023/05/05 02:49:44;;;;;;;;;;;;;;;20.06;44.20;95772.31;10236122;28;2139;-71
2023/05/05 02:54:44;;;;;;;;;;;;;;;20.05;44.43;95768.13;10240722;28;1986;-70
2023/05/05 03:00:04;;;;;;;;;;;;;;;20.05;44.30;95763.63;10233380;28;1982;-70
2023/05/05 03:05:08;;;;;;;;;;;;;;;20.03;44.28;95760.47;10233230;28;2104;-70
2023/05/05 03:10:10;;;;;;;;;;;;;;;20.04;44.27;95771.78;10232998;28;2077;-70
2023/05/05 03:15:11;;;;;;;;;;;;;;;20.04;44.19;95774.44;10239032;28;1941;-70
2023/05/05 03:20:11;;;;;;;;;;;;;;;20.03;44.17;95780.75;10224461;28;2228;-70
2023/05/05 03:25:11;;;;;;;;;;;;;;;20.02;44.20;95769.44;10237456;28;2119;-70
2023/05/05 03:30:12;;;;;;;;;;;;;;;20.03;44.24;95772.88;10239260;28;2211;-70
2023/05/05 03:35:12;;;;;;;;;;;;;;;20.02;44.00;95771.28;10231959;28;8189;-69
2023/05/05 03:40:12;;;;;;;;;;;;;;;20.01;44.09;95773.13;10226919;28;5333;-70
2023/05/05 03:45:13;;;;;;;;;;;;;;;20.01;43.94;95773.13;10239176;28;3327;-70
2023/05/05 03:50:13;;;;;;;;;;;;;;;20.00;44.16;95771.56;10238208;28;7922;-70
2023/05/05 03:55:13;;;;;;;;;;;;;;;20.01;43.94;95785.50;10237829;28;2222;-70
2023/05/05 04:00:14;;;;;;;;;;;;;;;20.00;44.02;95770.75;10225640;28;2199;-70
2023/05/05 04:05:14;;;;;;;;;;;;;;;20.01;44.07;95780.25;10226847;28;2123;-70
2023/05/05 04:10:15;;;;;;;;;;;;;;;20.01;44.04;95774.97;10235155;28;8232;-70
2023/05/05 04:15:15;;;;;;;;;;;;;;;20.03;43.99;95786.78;10239404;28;2159;-70
2023/05/05 04:20:16;;;;;;;;;;;;;;;20.08;43.94;95780.72;10228433;28;1937;-70
2023/05/05 04:25:16;;;;;;;;;;;;;;;20.11;43.75;95783.59;10234739;28;1969;-70
2023/05/05 04:30:16;;;;;;;;;;;;;;;20.17;43.91;95781.75;10232821;28;2001;-70
2023/05/05 04:35:16;;;;;;;;;;;;;;;20.22;43.97;95792.28;10235052;28;1977;-70
2023/05/05 04:40:17;;;;;;;;;;;;;;;20.25;43.87;95789.13;10223775;28;2238;-70
2023/05/05 04:45:17;;;;;;;;;;;;;;;20.31;43.68;95792.50;10226961;28;5025;-70
2023/05/05 04:50:17;;;;;;;;;;;;;;;20.36;43.56;95801.16;10231958;28;2028;-70
2023/05/05 04:55:18;;;;;;;;;;;;;;;20.40;43.36;95791.69;10227569;28;1969;-70
2023/05/05 05:00:18;;;;;;;;;;;;;;;20.46;43.72;95792.44;10227064;28;1965;-70
2023/05/05 05:05:18;;;;;;;;;;;;;;;20.53;43.23;95798.19;10230185;28;1898;-70
2023/05/05 05:10:18;;;;;;;;;;;;;;;20.56;43.39;95811.63;10227535;28;2000;-70
2023/05/05 05:15:19;;;;;;;;;;;;;;;20.62;43.24;95807.09;10228355;28;2184;-70
2023/05/05 05:20:19;;;;;;;;;;;;;;;20.65;43.24;95811.84;10241733;28;2203;-70
2023/05/05 05:25:20;;;;;;;;;;;;;;;20.68;42.90;95813.91;10242325;28;1979;-70
2023/05/05 05:30:20;;;;;;;;;;;;;;;20.72;42.91;95817.56;10238209;28;1973;-70
2023/05/05 05:35:20;;;;;;;;;;;;;;;20.74;42.99;95816.25;10241124;28;2140;-70
2023/05/05 05:40:20;;;;;;;;;;;;;;;20.77;42.75;95815.69;10233105;28;2179;-70
2023/05/05 05:45:21;;;;;;;;;;;;;;;20.79;42.68;95818.84;10244392;28;6178;-69
2023/05/05 05:50:21;;;;;;;;;;;;;;;20.80;42.67;95812.50;10236748;28;2032;-70
2023/05/05 05:55:21;;;;;;;;;;;;;;;20.80;42.66;95817.78;10245318;28;1988;-70
2023/05/05 06:00:22;;;;;;;;;;;;;;;20.81;43.08;95821.97;10240342;28;1966;-70
2023/05/05 06:05:22;;;;;;;;;;;;;;;20.81;42.86;95818.59;10254531;28;1902;-69
2023/05/05 06:10:22;;;;;;;;;;;;;;;20.81;42.88;95819.34;10252117;28;1984;-69
2023/05/05 06:15:24;;;;;;;;;;;;;;;20.79;42.72;95824.09;10248069;28;2209;-69
2023/05/05 06:20:25;;;;;;;;;;;;;;;20.77;42.80;95823.59;10236239;28;2047;-67
2023/05/05 06:25:25;;;;;;;;;;;;;;;20.74;42.91;95821.50;10229848;28;1970;-67
2023/05/05 06:30:26;;;;;;;;;;;;;;;20.73;42.96;95827.06;10242626;28;1997;-67
2023/05/05 06:35:26;;;;;;;;;;;;;;;20.72;43.05;95831.53;10239041;28;2198;-71
2023/05/05 06:40:26;;;;;;;;;;;;;;;20.70;43.14;95828.38;10231812;28;1965;-67
2023/05/05 06:45:26;;;;;;;;;;;;;;;20.71;43.64;95832.56;10234205;28;6333;-69
2023/05/05 06:50:27;;;;;;;;;;;;;;;20.71;44.31;95827.31;10232307;28;2024;-62
2023/05/05 06:55:27;;;;;;;;;;;;;;;20.72;43.93;95836.00;10235720;28;2054;-63
2023/05/05 07:00:28;;;;;;;;;;;;;;;20.70;44.36;95828.38;10233526;28;2063;-64
2023/05/05 07:05:28;;;;;;;;;;;;;;;20.69;44.32;95837.34;10212642;28;2024;-62
2023/05/05 07:10:30;;;;;;;;;;;;;;;20.71;44.57;95837.84;10227060;28;2033;-62
2023/05/05 07:15:30;;;;;;;;;;;;;;;20.70;44.60;95830.22;10218104;28;1965;-63
2023/05/05 07:20:31;;;;;;;;;;;;;;;20.69;44.44;95839.97;10220886;28;2028;-61
2023/05/05 07:25:31;;;;;;;;;;;;;;;20.69;44.58;95839.97;10218886;28;2005;-65
2023/05/05 07:30:31;;;;;;;;;;;;;;;20.68;44.76;95829.72;10203302;28;2196;-64
2023/05/05 07:35:31;;;;;;;;;;;;;;;20.64;44.81;95829.47;10221783;28;2009;-66
2023/05/05 07:40:33;;;;;;;;;;;;;;;20.67;44.70;95828.91;10215589;28;4996;-63
2023/05/05 07:45:33;;;;;;;;;;;;;;;20.66;44.64;95827.34;10220075;28;2095;-62
2023/05/05 07:50:33;;;;;;;;;;;;;;;20.67;44.48;95828.16;10217427;28;2001;-64
2023/05/05 07:55:34;;;;;;;;;;;;;;;20.66;44.77;95816.03;10203312;28;1981;-60
2023/05/05 08:00:34;;;;;;;;;;;;;;;20.64;44.94;95818.94;10208011;28;1995;-63
2023/05/05 08:05:34;;;;;;;;;;;;;;;20.65;44.90;95820.50;10216575;28;2046;-62
2023/05/05 08:10:35;;;;;;;;;;;;;;;20.64;45.00;95823.41;10219260;28;2199;-63
2023/05/05 08:15:35;;;;;;;;;;;;;;;20.64;45.08;95824.22;10223595;28;1977;-63
2023/05/05 08:20:36;;;;;;;;;;;;;;;20.63;45.14;95822.63;10219553;28;2217;-62
2023/05/05 08:25:36;;;;;;;;;;;;;;;20.64;44.95;95818.16;10218490;28;2239;-62
2023/05/05 08:30:36;;;;;;;;;;;;;;;20.64;45.19;95813.69;10227072;28;1965;-61
2023/05/05 08:35:36;;;;;;;;;;;;;;;20.64;45.24;95808.41;10203225;28;1990;-63
2023/05/05 08:40:37;;;;;;;;;;;;;;;20.64;45.37;95812.88;10221076;28;5082;-63
2023/05/05 08:45:41;;;;;;;;;;;;;;;20.65;45.31;95817.09;10202354;28;1951;-64
2023/05/05 08:50:41;;;;;;;;;;;;;;;20.64;45.54;95807.59;10217487;28;1910;-64
2023/05/05 08:55:46;;;;;;;;;;;;;;;20.64;45.64;95812.88;10216407;28;2021;-63
2023/05/05 09:00:46;;;;;;;;;;;;;;;20.64;45.60;95823.41;10203574;28;1939;-67
2023/05/05 09:05:47;;;;;;;;;;;;;;;20.64;45.81;95823.41;10225381;28;1917;-68
2023/05/05 09:10:47;;;;;;;;;;;;;;;20.64;45.50;95818.16;10219597;28;1923;-65
2023/05/05 09:15:48;;;;;;;;;;;;;;;20.65;45.62;95811.84;10216149;28;1903;-66
2023/05/05 09:20:48;;;;;;;;;;;;;;;20.64;45.60;95812.88;10218211;28;1939;-66
2023/05/05 09:26:09;;;;;;;;;;;;;;;20.65;45.53;95819.72;10221628;28;2144;-65
2023/05/05 09:31:12;;;;;;;;;;;;;;;20.65;45.58;95815.22;10219550;28;2043;-65
2023/05/05 09:36:13;;;;;;;;;;;;;;;20.64;45.82;95807.59;10220890;28;2163;-65
2023/05/05 09:41:14;;;;;;;;;;;;;;;20.63;45.87;95806.81;10229911;28;5049;-65
2023/05/05 09:46:14;;;;;;;;;;;;;;;20.65;45.65;95803.94;10228253;28;5375;-65
2023/05/05 09:51:15;;;;;;;;;;;;;;;20.65;45.85;95799.44;10228892;28;8327;-67
2023/05/05 09:56:15;;;;;;;;;;;;;;;20.65;45.80;95799.44;10214862;28;5311;-66
2023/05/05 10:01:22;;;;;;;;;;;;;;;20.64;45.88;95797.88;10230386;28;1887;-65
2023/05/05 10:06:37;;;;;;;;;;;;;;;20.68;45.90;95792.84;10222384;28;3404;-65
2023/05/05 10:11:39;;;;;;;;;;;;;;;20.67;45.85;95791.28;10221781;28;8343;-64
2023/05/05 10:16:40;;;;;;;;;;;;;;;20.67;45.94;95796.53;10225168;28;5477;-64
2023/05/05 10:21:40;;;;;;;;;;;;;;;20.68;45.54;95780.47;10226378;28;8224;-63
2023/05/05 10:26:41;;;;;;;;;;;;;;;20.68;45.93;95787.56;10209321;28;1934;-67
2023/05/05 10:31:48;;;;;;;;;;;;;;;20.66;45.94;95772.03;10223339;28;5431;-63
2023/05/05 10:36:48;;;;;;;;;;;;;;;20.69;46.14;95783.88;10222655;28;1852;-63
2023/05/05 10:41:49;;;;;;;;;;;;;;;20.70;46.30;95767.81;10219836;28;1888;-65
2023/05/05 10:46:49;;;;;;;;;;;;;;;20.72;46.88;95770.94;10237488;28;5409;-65
2023/05/05 10:51:59;;;;;;;;;;;;;;;20.75;47.62;95767.00;10231847;28;2279;-67
2023/05/05 10:57:03;;;;;;;;;;;;;;;20.79;47.04;95757.47;10237393;28;1907;-66
2023/05/05 11:02:22;;;;;;;;;;;;;;;20.80;47.16;95753.75;10206366;28;2143;-63
2023/05/05 11:07:23;;;;;;;;;;;;;;;20.81;47.15;95750.84;10224960;28;1954;-63
2023/05/05 11:12:23;;;;;;;;;;;;;;;20.80;47.14;95738.75;10219582;28;2039;-62
2023/05/05 11:17:42;;;;;;;;;;;;;;;20.80;47.29;95733.47;10226901;28;1840;-61
2023/05/05 11:23:03;;;;;;;;;;;;;;;20.81;47.13;95732.41;10223046;28;8487;-62
2023/05/05 11:28:10;;;;;;;;;;;;;;;20.81;47.17;95721.88;10218332;28;1834;-62
2023/05/05 11:33:29;;;;;;;;;;;;;;;20.82;47.09;95714.75;10224487;28;1971;-62
2023/05/05 11:38:32;;;;;;;;;;;;;;;20.83;47.08;95716.34;10223965;28;1936;-63
2023/05/05 11:43:32;;;;;;;;;;;;;;;20.82;46.84;95710.28;10227056;28;1962;-66
2023/05/05 11:48:42;;;;;;;;;;;;;;;20.81;47.18;95706.06;10220645;28;1981;-64
2023/05/05 11:53:42;;;;;;;;;;;;;;;20.84;46.89;95708.16;10221666;28;1918;-64
2023/05/05 11:58:44;;;;;;;;;;;;;;;20.85;46.77;95699.22;10218526;28;2038;-64
2023/05/05 12:03:44;;;;;;;;;;;;;;;20.84;46.70;95692.34;10221319;28;1864;-64
2023/05/05 12:08:44;;;;;;;;;;;;;;;20.85;46.70;95696.56;10223186;28;1947;-62
2023/05/05 12:13:45;;;;;;;;;;;;;;;20.85;46.69;95691.31;10222581;28;1980;-63
2023/05/05 12:18:45;;;;;;;;;;;;;;;20.84;46.49;95691.56;10221563;28;4999;-64
2023/05/05 12:23:45;;;;;;;;;;;;;;;20.84;46.34;95687.09;10225184;28;1968;-62
2023/05/05 12:28:46;;;;;;;;;;;;;;;20.84;46.61;95681.03;10227290;28;2063;-64
2023/05/05 12:33:47;;;;;;;;;;;;;;;20.84;46.35;95675.75;10224809;28;1911;-65
2023/05/05 12:38:48;;;;;;;;;;;;;;;20.84;46.39;95678.38;10221558;28;1781;-65
2023/05/05 12:43:53;;;;;;;;;;;;;;;20.83;46.24;95674.19;10218550;28;1898;-63
2023/05/05 12:49:00;;;;;;;;;;;;;;;20.83;46.27;95663.66;10221599;28;2103;-62
2023/05/05 12:54:07;;;;;;;;;;;;;;;20.84;46.21;95663.38;10219521;28;1975;-63
2023/05/05 12:59:07;;;;;;;;;;;;;;;20.85;46.29;95658.91;10220435;28;1867;-63
2023/05/05 13:04:09;;;;;;;;;;;;;;;20.84;46.20;95650.19;10222852;28;1919;-62
2023/05/05 13:09:22;;;;;;;;;;;;;;;20.85;46.05;95643.09;10230481;28;1905;-65
2023/05/05 13:14:23;;;;;;;;;;;;;;;20.84;45.94;95634.38;10232965;28;2003;-65
2023/05/05 13:19:23;;;;;;;;;;;;;;;20.83;45.83;95617.03;10218409;28;6174;-65
2023/05/05 13:24:24;;;;;;;;;;;;;;;20.84;45.75;95623.06;10232627;28;2074;-65
2023/05/05 13:29:25;;;;;;;;;;;;;;;20.83;45.63;95605.69;10235415;28;1915;-63
2023/05/05 13:34:25;;;;;;;;;;;;;;;20.81;45.48;95603.31;10239526;28;1910;-63
2023/05/05 13:39:25;;;;;;;;;;;;;;;20.81;45.50;95594.66;10238984;28;1926;-63
2023/05/05 13:44:26;;;;;;;;;;;;;;;20.81;45.38;95598.06;10244566;28;1849;-64
2023/05/05 13:49:26;;;;;;;;;;;;;;;20.82;45.73;95589.09;10239551;28;1978;-62
2023/05/05 13:54:26;;;;;;;;;;;;;;;20.83;45.56;95576.72;10241608;28;2103;-63
2023/05/05 13:59:27;;;;;;;;;;;;;;;20.85;45.81;95571.94;10235567;28;1900;-61
2023/05/05 14:04:27;;;;;;;;;;;;;;;20.85;45.81;95559.56;10231459;28;1943;-63
2023/05/05 14:09:27;;;;;;;;;;;;;;;20.88;46.01;95561.63;10231572;28;2111;-64
2023/05/05 14:14:28;;;;;;;;;;;;;;;20.87;46.02;95559.28;10240451;28;1902;-64
2023/05/05 14:19:28;;;;;;;;;;;;;;;20.85;45.83;95554.31;10210079;28;5772;-64
2023/05/05 14:24:28;;;;;;;;;;;;;;;20.87;45.96;95548.75;10242273;28;1881;-65
2023/05/05 14:29:29;;;;;;;;;;;;;;;20.86;45.78;95537.41;10241778;28;1972;-65
2023/05/05 14:34:29;;;;;;;;;;;;;;;20.86;45.89;95537.41;10245962;28;1851;-65
2023/05/05 14:39:29;;;;;;;;;;;;;;;20.86;45.76;95537.41;10235929;28;1900;-64
2023/05/05 14:44:30;;;;;;;;;;;;;;;20.85;45.94;95545.59;10238724;28;2030;-64
2023/05/05 14:49:30;;;;;;;;;;;;;;;20.86;46.08;95540.06;10231328;28;1977;-64
2023/05/05 14:54:30;;;;;;;;;;;;;;;20.86;46.00;95536.63;10241343;28;1920;-65
2023/05/05 14:59:31;;;;;;;;;;;;;;;20.84;46.20;95523.75;10232840;28;1919;-66
2023/05/05 15:04:31;;;;;;;;;;;;;;;20.85;46.04;95527.97;10237710;28;2163;-65
2023/05/05 15:09:32;;;;;;;;;;;;;;;20.84;46.25;95523.75;10235913;28;1976;-65
2023/05/05 15:14:32;;;;;;;;;;;;;;;20.86;46.25;95526.88;10233221;28;2103;-64
2023/05/05 15:19:32;;;;;;;;;;;;;;;20.88;46.01;95526.59;10231515;28;5123;-64
2023/05/05 15:24:33;;;;;;;;;;;;;;;20.89;46.19;95526.34;10241959;28;1945;-64
2023/05/05 15:29:33;;;;;;;;;;;;;;;20.88;46.31;95523.97;10237784;28;1920;-64
2023/05/05 15:34:36;;;;;;;;;;;;;;;20.87;46.53;95515.28;10241595;28;1857;-64
2023/05/05 15:39:36;;;;;;;;;;;;;;;20.86;46.50;95508.44;10233159;28;1963;-67
2023/05/05 15:44:36;;;;;;;;;;;;;;;20.86;46.50;95505.00;10239701;28;1879;-66
2023/05/05 15:49:36;;;;;;;;;;;;;;;20.86;46.71;95507.66;10237908;28;2017;-64
2023/05/05 15:54:37;;;;;;;;;;;;;;;20.86;46.82;95499.75;10237768;28;1853;-65
2023/05/05 15:59:37;;;;;;;;;;;;;;;20.85;46.91;95498.97;10231541;28;1979;-64
2023/05/05 16:04:37;;;;;;;;;;;;;;;20.85;46.92;95501.63;10243851;28;1824;-64
2023/05/05 16:09:37;;;;;;;;;;;;;;;20.87;46.87;95507.38;10232959;28;1981;-64
2023/05/05 16:14:38;;;;;;;;;;;;;;;20.86;46.88;95499.75;10231010;28;2095;-64
2023/05/05 16:19:38;;;;;;;;;;;;;;;20.86;46.90;95499.75;10232686;28;5019;-64
2023/05/05 16:24:38;;;;;;;;;;;;;;;20.85;46.83;95485.00;10234096;28;1964;-64
2023/05/05 16:29:38;;;;;;;;;;;;;;;20.86;46.87;95484.72;10230344;28;1911;-63
2023/05/05 16:34:39;;;;;;;;;;;;;;;20.86;47.03;95479.47;10236617;28;1916;-63
2023/05/05 16:39:40;;;;;;;;;;;;;;;20.86;47.21;95471.56;10228086;28;1898;-64
2023/05/05 16:44:40;;;;;;;;;;;;;;;20.86;46.92;95479.47;10233120;28;1879;-64
2023/05/05 16:49:40;;;;;;;;;;;;;;;20.84;46.78;95486.84;10225929;28;1937;-64
2023/05/05 16:54:42;;;;;;;;;;;;;;;20.84;46.64;95486.84;10230024;28;1963;-63
2023/05/05 16:59:42;;;;;;;;;;;;;;;20.84;46.83;95488.69;10227325;28;2019;-64
2023/05/05 17:04:42;;;;;;;;;;;;;;;20.82;47.02;95478.44;10230366;28;1848;-64
2023/05/05 17:09:43;;;;;;;;;;;;;;;20.82;46.73;95465.28;10227920;28;2095;-64
2023/05/05 17:14:44;;;;;;;;;;;;;;;20.82;46.75;95453.94;10232019;28;1943;-64
2023/05/05 17:19:45;;;;;;;;;;;;;;;20.81;46.61;95442.63;10232468;28;4870;-64
2023/05/05 17:24:45;;;;;;;;;;;;;;;20.82;46.88;95451.31;10227257;28;1960;-64
2023/05/05 17:29:45;;;;;;;;;;;;;;;20.80;46.80;95443.69;10229822;28;2035;-64
2023/05/05 17:34:45;;;;;;;;;;;;;;;20.80;46.77;95442.91;10224594;28;2032;-64
2023/05/05 17:39:46;;;;;;;;;;;;;;;20.79;46.50;95439.47;10225146;28;1892;-64
2023/05/05 17:44:46;;;;;;;;;;;;;;;20.79;46.54;95428.19;10225937;28;2082;-64
2023/05/05 17:49:47;;;;;;;;;;;;;;;20.79;46.64;95421.03;10223423;28;2036;-64
2023/05/05 17:54:47;;;;;;;;;;;;;;;20.77;46.69;95423.19;10229358;28;2127;-64
2023/05/05 17:59:48;;;;;;;;;;;;;;;20.77;46.61;95414.50;10227675;28;1912;-64
2023/05/05 18:04:49;;;;;;;;;;;;;;;20.78;46.59;95403.69;10227734;28;2036;-64
2023/05/05 18:09:49;;;;;;;;;;;;;;;20.77;46.65;95390.81;10228254;28;1899;-64
2023/05/05 18:14:49;;;;;;;;;;;;;;;20.76;46.64;95413.72;10232958;28;1945;-64
2023/05/05 18:19:50;;;;;;;;;;;;;;;20.77;46.60;95435.59;10233742;28;5166;-64
2023/05/05 18:24:50;;;;;;;;;;;;;;;20.76;46.52;95441.91;10234993;28;1887;-64
2023/05/05 18:29:50;;;;;;;;;;;;;;;20.75;46.40;95464.06;10235990;28;1975;-63
2023/05/05 18:34:51;;;;;;;;;;;;;;;20.75;46.60;95478.00;10232059;28;1898;-64
2023/05/05 18:39:51;;;;;;;;;;;;;;;20.76;46.66;95479.56;10240428;28;1836;-63
2023/05/05 18:44:52;;;;;;;;;;;;;;;20.75;46.43;95480.63;10234290;28;2127;-64
2023/05/05 18:49:52;;;;;;;;;;;;;;;20.75;46.56;95506.97;10237536;28;2077;-64
2023/05/05 18:54:52;;;;;;;;;;;;;;;20.77;46.29;95646.31;10233738;28;1892;-62
2023/05/05 18:59:52;;;;;;;;;;;;;;;20.76;46.52;95779.09;10229520;28;1888;-64
2023/05/05 19:04:53;;;;;;;;;;;;;;;20.73;46.52;95822.56;10235582;28;1876;-64
2023/05/05 19:09:53;;;;;;;;;;;;;;;20.72;46.27;95794.66;10234234;28;2055;-64
2023/05/05 19:14:53;;;;;;;;;;;;;;;20.72;46.23;95768.31;10214372;28;1913;-64
2023/05/05 19:19:53;;;;;;;;;;;;;;;20.71;46.50;95771.22;10231397;28;5146;-64
2023/05/05 19:24:54;;;;;;;;;;;;;;;20.72;46.25;95785.97;10241955;28;1828;-64
2023/05/05 19:29:54;;;;;;;;;;;;;;;20.70;46.29;95796.78;10236876;28;2401;-64
2023/05/05 19:34:54;;;;;;;;;;;;;;;20.69;46.27;95804.97;10241167;28;1990;-64
2023/05/05 19:39:55;;;;;;;;;;;;;;;20.70;46.30;95806.53;10229611;28;1892;-63
2023/05/05 19:44:55;;;;;;;;;;;;;;;20.69;46.22;95789.16;10228164;28;2043;-64
2023/05/05 19:49:55;;;;;;;;;;;;;;;20.68;46.20;95775.19;10225779;28;1906;-64
2023/05/05 19:54:56;;;;;;;;;;;;;;;20.68;46.13;95777.81;10232373;28;1840;-64
2023/05/05 19:59:57;;;;;;;;;;;;;;;20.67;45.94;95776.22;10209301;28;1991;-64
2023/05/05 20:04:57;;;;;;;;;;;;;;;20.67;45.98;95776.22;10237410;28;1797;-64
2023/05/05 20:09:59;;;;;;;;;;;;;;;20.67;46.00;95778.09;10228467;28;1960;-64
2023/05/05 20:15:00;;;;;;;;;;;;;;;20.67;46.01;95772.84;10230441;28;1921;-64
2023/05/05 20:20:00;;;;;;;;;;;;;;;20.66;45.81;95784.41;10239057;28;5246;-65
2023/05/05 20:25:01;;;;;;;;;;;;;;;20.66;45.93;95785.22;10215537;28;2088;-64
2023/05/05 20:30:01;;;;;;;;;;;;;;;20.66;45.95;95789.69;10233415;28;1910;-64
2023/05/05 20:35:03;;;;;;;;;;;;;;;20.66;45.92;95797.59;10234452;28;1954;-64
2023/05/05 20:40:03;;;;;;;;;;;;;;;20.65;45.73;95801.28;10233906;28;1843;-64
2023/05/05 20:45:04;;;;;;;;;;;;;;;20.66;45.86;95802.84;10231926;28;2139;-64
2023/05/05 20:50:04;;;;;;;;;;;;;;;20.66;45.80;95794.97;10231334;28;1914;-64
2023/05/05 20:55:05;;;;;;;;;;;;;;;20.64;45.83;95797.88;10229083;28;1884;-64
2023/05/05 21:00:05;;;;;;;;;;;;;;;20.64;45.89;95795.25;10220769;28;2008;-64
2023/05/05 21:05:06;;;;;;;;;;;;;;;20.64;45.74;95791.81;10231692;28;1778;-64
2023/05/05 21:10:06;;;;;;;;;;;;;;;20.63;45.64;95785.75;10231021;28;1973;-67
2023/05/05 21:15:07;;;;;;;;;;;;;;;20.64;45.73;95770.75;10237982;28;1876;-65
2023/05/05 21:20:07;;;;;;;;;;;;;;;20.63;45.71;95767.31;10239548;28;5134;-64
2023/05/05 21:25:11;;;;;;;;;;;;;;;20.63;45.68;95758.66;10237383;28;1856;-64
2023/05/05 21:30:12;;;;;;;;;;;;;;;20.63;45.72;95769.19;10239331;28;2088;-64
2023/05/05 21:35:12;;;;;;;;;;;;;;;20.63;45.76;95766.53;10232737;28;1833;-64
2023/05/05 21:40:15;;;;;;;;;;;;;;;20.62;45.72;95762.31;10233899;28;2083;-64
2023/05/05 21:45:15;;;;;;;;;;;;;;;20.61;45.59;95758.91;10232484;28;1888;-64
2023/05/05 21:50:15;;;;;;;;;;;;;;;20.61;45.41;95756.25;10227790;28;1951;-64
2023/05/05 21:55:15;;;;;;;;;;;;;;;20.62;45.48;95749.16;10241932;28;2131;-64
2023/05/05 22:00:16;;;;;;;;;;;;;;;20.61;45.34;95745.72;10232364;28;2018;-64
2023/05/05 22:05:16;;;;;;;;;;;;;;;20.60;45.32;95744.16;10242420;28;1883;-65
2023/05/05 22:10:16;;;;;;;;;;;;;;;20.61;45.36;95753.63;10234059;28;1969;-64
2023/05/05 22:15:18;;;;;;;;;;;;;;;20.60;45.13;95748.63;10244620;28;1904;-64
2023/05/05 22:20:19;;;;;;;;;;;;;;;20.60;45.30;95752.06;10240547;28;5114;-64
2023/05/05 22:25:19;;;;;;;;;;;;;;;20.60;45.36;95749.44;10237197;28;1847;-64
2023/05/05 22:30:19;;;;;;;;;;;;;;;20.60;45.24;95753.91;10243367;28;1907;-64
2023/05/05 22:35:19;;;;;;;;;;;;;;;20.60;45.23;95752.06;10234535;28;2190;-64
2023/05/05 22:40:20;;;;;;;;;;;;;;;20.60;45.30;95753.91;10232447;28;1906;-64
2023/05/05 22:45:20;;;;;;;;;;;;;;;20.59;45.20;95753.13;10236642;28;1911;-63
2023/05/05 22:50:21;;;;;;;;;;;;;;;20.59;45.16;95747.84;10232434;28;2082;-65
2023/05/05 22:55:23;;;;;;;;;;;;;;;20.59;45.31;95747.06;10238875;28;1912;-65
2023/05/05 23:00:23;;;;;;;;;;;;;;;20.59;45.27;95742.56;10234294;28;1938;-64
2023/05/05 23:05:23;;;;;;;;;;;;;;;20.58;45.31;95754.19;10214860;28;1949;-64
2023/05/05 23:10:24;;;;;;;;;;;;;;;20.58;45.40;95748.91;10235348;28;1909;-65
2023/05/05 23:15:24;;;;;;;;;;;;;;;20.58;45.31;95746.28;10235749;28;1899;-65
2023/05/05 23:20:24;;;;;;;;;;;;;;;20.58;45.18;95737.59;10236499;28;1860;-64
2023/05/05 23:25:24;;;;;;;;;;;;;;;20.58;45.17;95740.22;10240828;28;1872;-65
2023/05/05 23:30:25;;;;;;;;;;;;;;;20.58;45.28;95737.59;10237867;28;2053;-65
2023/05/05 23:35:25;;;;;;;;;;;;;;;20.57;45.27;95739.44;10188798;28;1374510;-65
2023/05/05 23:40:25;;;;;;;;;;;;;;;20.58;44.99;95742.88;10242088;28;1911;-66
2023/05/05 23:45:26;;;;;;;;;;;;;;;20.55;45.18;95738.13;10236773;28;1894;-66
2023/05/05 23:50:26;;;;;;;;;;;;;;;20.56;45.15;95732.59;10247027;28;1980;-66
2023/05/05 23:55:26;;;;;;;;;;;;;;;20.56;45.51;95734.44;10240493;28;1864;-66
